createdAt,value
2023-05-07T00:01:24.887Z,99726.15
2023-05-07T00:03:51.615Z,99723.00
2023-05-07T00:06:18.525Z,99726.81
2023-05-07T00:08:45.452Z,99714.20
2023-05-07T00:11:12.508Z,99708.67
2023-05-07T00:13:39.212Z,99711.54
2023-05-07T00:16:06.204Z,99705.08
2023-05-07T00:18:32.933Z,99707.81
2023-05-07T00:20:59.695Z,99700.71
2023-05-07T00:23:26.390Z,99699.58
2023-05-07T00:25:53.152Z,99700.77
2023-05-07T00:28:19.847Z,99707.61
2023-05-07T00:30:46.552Z,99701.11
2023-05-07T00:33:13.243Z,99696.65
2023-05-07T00:35:39.956Z,99692.13
2023-05-07T00:38:06.813Z,99691.45
2023-05-07T00:40:33.673Z,99690.36
2023-05-07T00:43:00.979Z,99689.29
2023-05-07T00:45:28.338Z,99695.40
2023-05-07T00:47:58.990Z,99691.30
2023-05-07T00:50:26.645Z,99688.97
2023-05-07T00:52:53.384Z,99691.42
2023-05-07T00:55:20.966Z,99696.47
2023-05-07T00:57:47.760Z,99709.83
2023-05-07T01:00:15.621Z,99717.39
2023-05-07T01:02:42.817Z,99711.27
2023-05-07T01:05:13.777Z,99706.05
2023-05-07T01:07:41.263Z,99700.60
2023-05-07T01:10:08.530Z,99710.15
2023-05-07T01:12:35.782Z,99703.73
2023-05-07T01:15:03.350Z,99701.94
2023-05-07T01:17:30.065Z,99698.27
2023-05-07T01:19:56.864Z,99695.76
2023-05-07T01:22:37.542Z,99698.45
2023-05-07T01:25:05.221Z,99704.33
2023-05-07T01:27:32.180Z,99716.48
2023-05-07T01:29:58.943Z,99710.35
2023-05-07T01:32:39.595Z,99702.16
2023-05-07T01:35:07.050Z,99690.66
2023-05-07T01:37:33.987Z,99694.08
2023-05-07T01:40:00.778Z,99689.88
2023-05-07T01:42:27.613Z,99689.42
2023-05-07T01:44:54.432Z,99688.35
2023-05-07T01:47:21.123Z,99693.26
2023-05-07T01:49:47.832Z,99690.73
2023-05-07T01:52:14.522Z,99683.03
2023-05-07T01:54:41.324Z,99676.17
2023-05-07T01:57:08.145Z,99667.59
2023-05-07T01:59:34.862Z,99669.86
2023-05-07T02:02:01.787Z,99664.48
2023-05-07T02:04:28.753Z,99663.74
2023-05-07T02:06:55.529Z,99669.00
2023-05-07T02:09:23.968Z,99674.73
2023-05-07T02:11:51.355Z,99671.67
2023-05-07T02:14:21.077Z,99671.25
2023-05-07T02:16:47.941Z,99662.31
2023-05-07T02:19:15.604Z,99666.68
2023-05-07T02:21:42.668Z,99663.13
2023-05-07T02:24:09.887Z,99656.80
2023-05-07T02:26:36.625Z,99656.96
2023-05-07T02:29:03.472Z,99654.16
2023-05-07T02:31:30.261Z,99645.42
2023-05-07T02:33:57.101Z,99648.04
2023-05-07T02:36:24.110Z,99650.73
2023-05-07T02:39:10.241Z,99647.48
2023-05-07T02:41:36.958Z,99656.86
2023-05-07T02:44:03.752Z,99661.09
2023-05-07T02:46:31.105Z,99663.11
2023-05-07T02:49:01.921Z,99661.16
2023-05-07T02:51:28.595Z,99660.35
2023-05-07T02:53:56.699Z,99658.48
2023-05-07T02:56:23.660Z,99660.87
2023-05-07T02:58:50.355Z,99656.09
2023-05-07T03:01:18.053Z,99653.64
2023-05-07T03:04:05.526Z,99659.56
2023-05-07T03:06:32.520Z,99654.19
2023-05-07T03:08:59.261Z,99651.38
2023-05-07T03:11:26.364Z,99657.70
2023-05-07T03:13:53.046Z,99660.95
2023-05-07T03:16:20.164Z,99666.76
2023-05-07T03:18:47.060Z,99671.29
2023-05-07T03:21:13.832Z,99676.71
2023-05-07T03:23:40.606Z,99676.84
2023-05-07T03:26:08.324Z,99678.09
2023-05-07T03:28:35.145Z,99682.04
2023-05-07T03:31:03.632Z,99683.21
2023-05-07T03:33:30.691Z,99680.52
2023-05-07T03:35:57.495Z,99680.55
2023-05-07T03:38:25.087Z,99672.02
2023-05-07T03:40:51.887Z,99684.95
2023-05-07T03:43:18.871Z,99685.26
2023-05-07T03:45:49.618Z,99683.38
2023-05-07T03:48:20.389Z,99678.70
2023-05-07T03:50:48.784Z,99675.53
2023-05-07T03:53:16.231Z,99670.00
2023-05-07T03:55:43.172Z,99677.54
2023-05-07T03:58:09.868Z,99675.64
2023-05-07T04:00:39.485Z,99675.40
2023-05-07T04:03:12.854Z,99674.74
2023-05-07T04:05:39.854Z,99676.88
2023-05-07T04:08:06.667Z,99686.70
2023-05-07T04:10:39.526Z,99689.52
2023-05-07T04:13:09.370Z,99686.07
2023-05-07T04:15:36.886Z,99686.77
2023-05-07T04:18:04.885Z,99685.42
2023-05-07T04:20:32.022Z,99692.36
2023-05-07T04:23:01.549Z,99697.34
2023-05-07T04:25:28.564Z,99701.98
2023-05-07T04:28:00.128Z,99702.77
2023-05-07T04:30:27.650Z,99704.96
2023-05-07T04:32:54.460Z,99705.85
2023-05-07T04:35:21.535Z,99708.83
2023-05-07T04:37:48.414Z,99708.30
2023-05-07T04:40:15.257Z,99706.91
2023-05-07T04:42:42.503Z,99709.73
2023-05-07T04:45:11.268Z,99710.45
2023-05-07T04:47:38.830Z,99706.73
2023-05-07T04:50:07.514Z,99713.18
2023-05-07T04:52:34.243Z,99714.17
2023-05-07T04:55:01.830Z,99717.99
2023-05-07T04:57:30.666Z,99718.66
2023-05-07T04:59:58.094Z,99712.40
2023-05-07T05:02:24.866Z,99715.55
2023-05-07T05:04:51.895Z,99718.48
2023-05-07T05:07:18.947Z,99720.13
2023-05-07T05:09:46.195Z,99721.16
2023-05-07T05:12:13.030Z,99725.21
2023-05-07T05:14:39.803Z,99730.00
2023-05-07T05:17:07.014Z,99727.27
2023-05-07T05:19:34.248Z,99730.45
2023-05-07T05:22:02.172Z,99736.76
2023-05-07T05:24:29.904Z,99729.92
2023-05-07T05:26:56.650Z,99731.36
2023-05-07T05:29:23.676Z,99733.06
2023-05-07T05:31:50.440Z,99735.09
2023-05-07T05:34:20.610Z,99736.50
2023-05-07T05:36:47.353Z,99734.79
2023-05-07T05:39:15.161Z,99731.77
2023-05-07T05:41:41.910Z,99733.21
2023-05-07T05:44:08.947Z,99724.36
2023-05-07T05:46:37.274Z,99720.91
2023-05-07T05:49:04.416Z,99719.33
2023-05-07T05:51:31.707Z,99716.13
2023-05-07T05:53:58.498Z,99713.07
2023-05-07T05:56:25.634Z,99709.48
2023-05-07T05:58:52.510Z,99711.21
2023-05-07T06:01:20.015Z,99710.83
2023-05-07T06:03:47.726Z,99714.95
2023-05-07T06:06:15.602Z,99719.61
2023-05-07T06:08:43.028Z,99723.03
2023-05-07T06:11:10.384Z,99726.23
2023-05-07T06:13:37.949Z,99728.65
2023-05-07T06:16:05.179Z,99725.73
2023-05-07T06:18:32.471Z,99723.65
2023-05-07T06:20:59.274Z,99727.56
2023-05-07T06:23:28.400Z,99721.06
2023-05-07T06:25:55.379Z,99718.47
2023-05-07T06:28:25.154Z,99717.46
2023-05-07T06:30:52.287Z,99718.38
2023-05-07T06:33:20.695Z,99709.33
2023-05-07T06:35:47.457Z,99710.95
2023-05-07T06:38:14.196Z,99708.30
2023-05-07T06:40:41.455Z,99702.04
2023-05-07T06:43:08.143Z,99706.21
2023-05-07T06:45:42.192Z,99708.01
2023-05-07T06:48:09.755Z,99712.36
2023-05-07T06:50:44.848Z,99713.86
2023-05-07T06:53:11.684Z,99712.05
2023-05-07T06:55:39.312Z,99713.30
2023-05-07T06:58:07.053Z,99710.91
2023-05-07T07:00:33.888Z,99710.36
2023-05-07T07:03:01.594Z,99704.25
2023-05-07T07:05:28.945Z,99700.11
2023-05-07T07:07:56.681Z,99702.35
2023-05-07T07:10:23.493Z,99708.59
2023-05-07T07:12:51.011Z,99706.09
2023-05-07T07:15:17.877Z,99712.05
2023-05-07T07:17:45.377Z,99713.86
2023-05-07T07:20:12.911Z,99715.67
2023-05-07T07:22:40.998Z,99715.06
2023-05-07T07:25:08.256Z,99721.00
2023-05-07T07:27:35.031Z,99717.43
2023-05-07T07:30:01.805Z,99713.98
2023-05-07T07:32:30.532Z,99716.64
2023-05-07T07:34:57.377Z,99720.41
2023-05-07T07:37:26.651Z,99721.47
2023-05-07T07:39:53.834Z,99730.14
2023-05-07T07:42:22.024Z,99722.95
2023-05-07T07:44:49.426Z,99730.33
2023-05-07T07:47:16.424Z,99730.33
2023-05-07T07:49:43.794Z,99731.52
2023-05-07T07:52:10.575Z,99732.55
2023-05-07T07:54:37.364Z,99733.30
2023-05-07T07:57:04.328Z,99734.88
2023-05-07T07:59:32.453Z,99733.20
2023-05-07T08:01:59.340Z,99736.63
2023-05-07T08:04:27.778Z,99734.26
2023-05-07T08:06:55.669Z,99732.31
2023-05-07T08:09:22.497Z,99741.03
2023-05-07T08:11:49.301Z,99738.86
2023-05-07T08:14:16.882Z,99737.90
2023-05-07T08:16:45.672Z,99736.91
2023-05-07T08:19:12.545Z,99734.98
2023-05-07T08:21:42.347Z,99734.40
2023-05-07T08:24:10.051Z,99733.51
2023-05-07T08:26:37.415Z,99736.85
2023-05-07T08:29:04.143Z,99735.17
2023-05-07T08:31:30.890Z,99737.34
2023-05-07T08:33:58.649Z,99738.28
2023-05-07T08:36:26.636Z,99736.73
2023-05-07T08:38:53.981Z,99732.92
2023-05-07T08:41:21.917Z,99731.75
2023-05-07T08:43:50.455Z,99742.67
2023-05-07T08:46:18.824Z,99745.77
2023-05-07T08:48:46.671Z,99742.21
2023-05-07T08:51:17.462Z,99751.13
2023-05-07T08:53:44.292Z,99747.89
2023-05-07T08:56:13.763Z,99754.41
2023-05-07T08:58:40.807Z,99755.21
2023-05-07T09:01:14.221Z,99748.31
2023-05-07T09:03:41.827Z,99750.36
2023-05-07T09:06:08.656Z,99750.22
2023-05-07T09:08:36.136Z,99755.48
2023-05-07T09:11:03.450Z,99757.50
2023-05-07T09:13:30.607Z,99755.09
2023-05-07T09:15:57.874Z,99759.14
2023-05-07T09:18:25.654Z,99769.59
2023-05-07T09:20:52.793Z,99767.11
2023-05-07T09:23:21.198Z,99768.63
2023-05-07T09:25:48.061Z,99767.64
2023-05-07T09:28:25.736Z,99775.95
2023-05-07T09:30:52.491Z,99771.63
2023-05-07T09:33:19.705Z,99768.60
2023-05-07T09:35:52.360Z,99771.65
2023-05-07T09:38:19.117Z,99771.08
2023-05-07T09:40:45.819Z,99770.13
2023-05-07T09:43:14.501Z,99775.53
2023-05-07T09:45:46.100Z,99770.15
2023-05-07T09:48:12.981Z,99772.89
2023-05-07T09:50:49.529Z,99777.08
2023-05-07T09:53:17.250Z,99785.25
2023-05-07T09:55:44.453Z,99782.39
2023-05-07T09:58:12.474Z,99789.65
2023-05-07T10:00:39.278Z,99778.62
2023-05-07T10:03:08.027Z,99782.17
2023-05-07T10:05:41.435Z,99787.60
2023-05-07T10:08:08.705Z,99787.67
2023-05-07T10:10:35.737Z,99788.91
2023-05-07T10:13:03.097Z,99795.60
2023-05-07T10:15:32.871Z,99795.23
2023-05-07T10:18:00.018Z,99795.54
2023-05-07T10:20:27.079Z,99795.46
2023-05-07T10:22:54.948Z,99795.29
2023-05-07T10:25:27.130Z,99793.37
2023-05-07T10:27:54.667Z,99789.04
2023-05-07T10:30:47.639Z,99797.52
2023-05-07T10:33:15.248Z,99792.27
2023-05-07T10:35:44.271Z,99796.88
2023-05-07T10:38:11.417Z,99791.05
2023-05-07T10:40:39.578Z,99793.80
2023-05-07T10:43:09.466Z,99785.98
2023-05-07T10:46:15.593Z,99788.58
2023-05-07T10:49:07.335Z,99793.48
2023-05-07T10:52:18.277Z,99794.19
2023-05-07T10:55:19.938Z,99787.77
2023-05-07T10:57:52.744Z,99793.55
2023-05-07T11:03:02.939Z,99803.38
2023-05-07T11:05:37.545Z,99801.98
2023-05-07T11:08:24.732Z,99805.24
2023-05-07T11:11:05.094Z,99810.71
2023-05-07T11:13:45.849Z,99809.48
2023-05-07T11:16:51.095Z,99818.27
2023-05-07T11:19:51.091Z,99823.08
2023-05-07T11:22:34.081Z,99820.84
2023-05-07T11:25:09.044Z,99823.85
2023-05-07T11:27:36.082Z,99829.58
2023-05-07T11:30:02.888Z,99834.44
2023-05-07T11:32:31.727Z,99836.47
2023-05-07T11:34:59.784Z,99838.98
2023-05-07T11:37:27.829Z,99840.84
2023-05-07T11:40:08.834Z,99844.37
2023-05-07T11:42:38.366Z,99846.77
2023-05-07T11:45:06.893Z,99848.30
2023-05-07T11:47:34.224Z,99852.67
2023-05-07T11:50:12.076Z,99859.64
2023-05-07T11:52:40.246Z,99860.02
2023-05-07T11:55:07.939Z,99862.52
2023-05-07T11:57:35.670Z,99870.13
2023-05-07T12:00:06.391Z,99872.02
2023-05-07T12:02:43.733Z,99877.48
2023-05-07T12:05:11.069Z,99876.41
2023-05-07T12:07:38.095Z,99885.40
2023-05-07T12:10:08.356Z,99876.71
2023-05-07T12:12:47.247Z,99878.92
2023-05-07T12:15:17.132Z,99876.42
2023-05-07T12:17:44.417Z,99868.93
2023-05-07T12:20:11.571Z,99869.27
2023-05-07T12:22:38.277Z,99873.60
2023-05-07T12:25:05.387Z,99874.95
2023-05-07T12:27:32.189Z,99881.39
2023-05-07T12:30:00.050Z,99877.77
2023-05-07T12:32:26.824Z,99879.50
2023-05-07T12:34:53.598Z,99872.31
2023-05-07T12:37:24.805Z,99874.81
2023-05-07T12:40:09.102Z,99874.51
2023-05-07T12:42:40.961Z,99875.65
2023-05-07T12:45:12.243Z,99871.39
2023-05-07T12:47:39.248Z,99870.73
2023-05-07T12:50:07.371Z,99877.68
2023-05-07T12:52:34.857Z,99875.34
2023-05-07T12:55:08.269Z,99871.33
2023-05-07T12:57:46.987Z,99875.69
2023-05-07T13:00:14.413Z,99881.67
2023-05-07T13:02:42.618Z,99886.23
2023-05-07T13:05:09.984Z,99889.27
2023-05-07T13:07:38.251Z,99891.23
2023-05-07T13:10:09.226Z,99889.60
2023-05-07T13:12:36.161Z,99889.84
2023-05-07T13:15:02.987Z,99896.48
2023-05-07T13:17:31.812Z,99898.09
2023-05-07T13:19:58.636Z,99899.20
2023-05-07T13:22:25.390Z,99902.34
2023-05-07T13:24:52.252Z,99904.40
2023-05-07T13:27:20.316Z,99907.54
2023-05-07T13:29:47.019Z,99910.21
2023-05-07T13:32:13.858Z,99915.77
2023-05-07T13:34:40.764Z,99919.98
2023-05-07T13:37:11.292Z,99926.36
2023-05-07T13:39:38.516Z,99927.16
2023-05-07T13:42:05.506Z,99932.71
2023-05-07T13:44:32.292Z,99938.27
2023-05-07T13:46:59.000Z,99944.33
2023-05-07T13:49:25.814Z,99944.14
2023-05-07T13:51:52.671Z,99941.95
2023-05-07T13:54:19.509Z,99945.27
2023-05-07T13:56:46.367Z,99945.21
2023-05-07T13:59:15.433Z,99943.55
2023-05-07T14:01:42.327Z,99946.12
2023-05-07T14:04:09.129Z,99947.67
2023-05-07T14:06:35.957Z,99950.83
2023-05-07T14:09:02.838Z,99959.97
2023-05-07T14:11:29.762Z,99967.20
2023-05-07T14:13:57.872Z,99975.95
2023-05-07T14:16:24.671Z,99977.02
2023-05-07T14:18:51.486Z,99982.81
2023-05-07T14:21:18.207Z,99981.34
2023-05-07T14:23:44.908Z,99980.02
2023-05-07T14:26:11.743Z,99985.95
2023-05-07T14:28:40.600Z,99989.36
2023-05-07T14:31:07.660Z,99999.64
2023-05-07T14:33:34.777Z,100001.80
2023-05-07T14:36:01.525Z,100008.95
2023-05-07T14:38:28.354Z,100010.73
2023-05-07T14:40:56.865Z,100013.58
2023-05-07T14:43:23.881Z,100015.27
2023-05-07T14:45:51.178Z,100013.36
2023-05-07T14:48:21.017Z,100014.10
2023-05-07T14:50:49.192Z,100015.92
2023-05-07T14:53:16.684Z,100016.27
2023-05-07T14:55:43.580Z,100020.38
2023-05-07T14:58:11.633Z,100021.40
2023-05-07T15:00:38.443Z,100025.66
2023-05-07T15:03:10.912Z,100039.34
2023-05-07T15:05:38.924Z,100037.65
2023-05-07T15:08:06.138Z,100036.03
2023-05-07T15:10:41.966Z,100034.55
2023-05-07T15:13:10.132Z,100031.52
2023-05-07T15:15:39.661Z,100027.59
2023-05-07T15:18:06.498Z,100025.77
2023-05-07T15:20:36.499Z,100026.25
2023-05-07T15:23:05.836Z,100033.16
2023-05-07T15:25:34.510Z,100033.73
2023-05-07T15:28:01.326Z,100033.25
2023-05-07T15:30:28.400Z,100033.38
2023-05-07T15:32:55.204Z,100035.20
2023-05-07T15:35:23.000Z,100037.15
2023-05-07T15:37:56.611Z,100042.91
2023-05-07T15:40:23.412Z,100050.48
2023-05-07T15:42:50.174Z,100058.48
2023-05-07T15:45:17.048Z,100067.63
2023-05-07T15:47:43.983Z,100072.25
2023-05-07T15:50:11.126Z,100076.23
2023-05-07T15:52:39.096Z,100073.13
2023-05-07T15:55:07.372Z,100072.32
2023-05-07T15:57:34.140Z,100076.91
2023-05-07T16:00:00.911Z,100079.48
2023-05-07T16:02:27.886Z,100076.30
2023-05-07T16:04:54.698Z,100070.02
2023-05-07T16:07:21.458Z,100066.75
2023-05-07T16:09:48.220Z,100068.73
2023-05-07T16:12:14.938Z,100069.23
2023-05-07T16:14:41.688Z,100067.17
2023-05-07T16:17:08.514Z,100063.69
2023-05-07T16:19:35.336Z,100069.72
2023-05-07T16:22:02.138Z,100070.84
2023-05-07T16:24:28.897Z,100076.55
2023-05-07T16:26:55.926Z,100077.16
2023-05-07T16:29:23.279Z,100077.82
2023-05-07T16:31:50.013Z,100080.77
2023-05-07T16:34:16.901Z,100082.09
2023-05-07T16:36:43.694Z,100087.01
2023-05-07T16:39:10.577Z,100087.45
2023-05-07T16:41:38.131Z,100094.39
2023-05-07T16:44:04.911Z,100096.33
2023-05-07T16:46:32.292Z,100098.22
2023-05-07T16:48:59.072Z,100098.05
2023-05-07T16:51:26.076Z,100096.02
2023-05-07T16:53:53.117Z,100097.48
2023-05-07T16:56:19.884Z,100097.97
2023-05-07T16:58:46.605Z,100105.15
2023-05-07T17:01:15.288Z,100103.84
2023-05-07T17:03:42.140Z,100103.00
2023-05-07T17:06:14.070Z,100106.13
2023-05-07T17:08:43.091Z,100106.17
2023-05-07T17:11:10.437Z,100104.02
2023-05-07T17:13:37.235Z,100107.80
2023-05-07T17:16:04.405Z,100105.50
2023-05-07T17:18:31.144Z,100104.33
2023-05-07T17:20:57.900Z,100102.13
2023-05-07T17:23:24.608Z,100103.63
2023-05-07T17:25:51.333Z,100102.52
2023-05-07T17:28:18.264Z,100103.70
2023-05-07T17:30:46.523Z,100101.29
2023-05-07T17:33:20.691Z,100105.88
2023-05-07T17:35:48.115Z,100111.27
2023-05-07T17:38:14.880Z,100111.58
2023-05-07T17:40:41.645Z,100111.98
2023-05-07T17:43:08.363Z,100114.77
2023-05-07T17:45:36.022Z,100120.30
2023-05-07T17:48:03.577Z,100121.50
2023-05-07T17:50:30.459Z,100128.91
2023-05-07T17:52:57.293Z,100128.37
2023-05-07T17:55:24.033Z,100131.79
2023-05-07T17:57:50.790Z,100133.25
2023-05-07T18:00:17.719Z,100133.05
2023-05-07T18:02:44.547Z,100135.33
2023-05-07T18:05:11.764Z,100142.44
2023-05-07T18:07:38.467Z,100141.64
2023-05-07T18:10:05.637Z,100143.13
2023-05-07T18:12:32.341Z,100144.46
2023-05-07T18:14:59.096Z,100145.20
2023-05-07T18:17:26.922Z,100147.52
2023-05-07T18:19:55.131Z,100147.53
2023-05-07T18:22:22.615Z,100149.23
2023-05-07T18:24:49.616Z,100148.40
2023-05-07T18:27:16.450Z,100147.81
2023-05-07T18:29:43.240Z,100149.31
2023-05-07T18:32:10.063Z,100146.93
2023-05-07T18:34:36.854Z,100151.67
2023-05-07T18:37:03.656Z,100152.05
2023-05-07T18:39:31.528Z,100152.90
2023-05-07T18:41:58.889Z,100153.09
2023-05-07T18:44:25.613Z,100157.02
2023-05-07T18:46:52.320Z,100157.98
2023-05-07T18:49:19.162Z,100157.44
2023-05-07T18:51:45.866Z,100162.08
2023-05-07T18:54:12.620Z,100163.20
2023-05-07T18:56:39.413Z,100166.02
2023-05-07T18:59:06.147Z,100167.38
2023-05-07T19:01:35.258Z,100170.99
2023-05-07T19:04:05.189Z,100174.03
2023-05-07T19:06:33.704Z,100170.27
2023-05-07T19:09:00.651Z,100171.85
2023-05-07T19:11:27.522Z,100173.91
2023-05-07T19:13:54.390Z,100177.04
2023-05-07T19:16:21.256Z,100178.06
2023-05-07T19:18:48.146Z,100177.48
2023-05-07T19:21:14.947Z,100181.02
2023-05-07T19:23:42.183Z,100176.89
2023-05-07T19:26:10.071Z,100184.13
2023-05-07T19:28:45.315Z,100184.30
2023-05-07T19:31:21.893Z,100184.67
2023-05-07T19:33:48.715Z,100187.45
2023-05-07T19:36:17.374Z,100185.40
2023-05-07T19:38:45.187Z,100183.75
2023-05-07T19:41:12.464Z,100188.07
2023-05-07T19:43:39.674Z,100181.45
2023-05-07T19:46:06.833Z,100181.93
2023-05-07T19:48:33.585Z,100182.55
2023-05-07T19:51:00.436Z,100186.98
2023-05-07T19:53:27.443Z,100188.89
2023-05-07T19:56:04.242Z,100191.84
2023-05-07T19:58:31.023Z,100191.31
2023-05-07T20:00:57.704Z,100192.08
2023-05-07T20:03:24.615Z,100189.41
2023-05-07T20:05:51.693Z,100189.23
2023-05-07T20:08:18.474Z,100192.63
2023-05-07T20:10:45.418Z,100193.74
2023-05-07T20:13:12.289Z,100190.86
2023-05-07T20:15:39.176Z,100191.80
2023-05-07T20:18:06.043Z,100192.42
2023-05-07T20:20:32.853Z,100194.04
2023-05-07T20:22:59.753Z,100195.34
2023-05-07T20:25:26.642Z,100197.54
2023-05-07T20:27:53.419Z,100193.47
2023-05-07T20:30:20.535Z,100196.98
2023-05-07T20:32:47.338Z,100199.55
2023-05-07T20:35:14.346Z,100197.19
2023-05-07T20:37:41.166Z,100199.63
2023-05-07T20:40:08.470Z,100199.74
2023-05-07T20:42:36.259Z,100203.27
2023-05-07T20:45:04.099Z,100205.77
2023-05-07T20:47:32.905Z,100208.36
2023-05-07T20:49:59.798Z,100207.78
2023-05-07T20:52:26.624Z,100211.74
2023-05-07T20:54:53.405Z,100209.95
2023-05-07T20:57:20.228Z,100210.79
2023-05-07T20:59:46.969Z,100213.09
2023-05-07T21:02:13.694Z,100214.85
2023-05-07T21:04:40.639Z,100219.67
2023-05-07T21:07:07.579Z,100220.86
2023-05-07T21:09:34.390Z,100222.20
2023-05-07T21:12:01.601Z,100222.58
2023-05-07T21:14:28.329Z,100221.42
2023-05-07T21:16:55.102Z,100222.97
2023-05-07T21:19:21.902Z,100220.45
2023-05-07T21:21:48.811Z,100222.09
2023-05-07T21:24:15.635Z,100218.23
2023-05-07T21:26:42.514Z,100221.29
2023-05-07T21:29:09.235Z,100222.66
2023-05-07T21:31:36.140Z,100224.23
2023-05-07T21:34:02.912Z,100228.02
2023-05-07T21:36:29.699Z,100228.98
2023-05-07T21:38:56.439Z,100230.19
2023-05-07T21:41:23.209Z,100230.66
2023-05-07T21:43:49.959Z,100229.58
2023-05-07T21:46:16.774Z,100228.86
2023-05-07T21:48:43.573Z,100231.98
2023-05-07T21:51:10.345Z,100231.63
2023-05-07T21:53:37.297Z,100231.32
2023-05-07T21:56:05.106Z,100233.89
2023-05-07T21:58:32.165Z,100233.61
2023-05-07T22:00:59.895Z,100231.42
2023-05-07T22:03:26.931Z,100234.30
2023-05-07T22:05:53.669Z,100235.67
2023-05-07T22:08:20.601Z,100236.56
2023-05-07T22:10:47.405Z,100233.42
2023-05-07T22:13:14.151Z,100235.39
2023-05-07T22:15:49.543Z,100234.64
2023-05-07T22:18:20.264Z,100245.13
2023-05-07T22:20:46.983Z,100240.02
2023-05-07T22:23:13.727Z,100242.04
2023-05-07T22:25:40.525Z,100244.20
2023-05-07T22:28:07.196Z,100249.67
2023-05-07T22:30:33.897Z,100248.20
2023-05-07T22:33:00.764Z,100255.26
2023-05-07T22:35:27.730Z,100254.42
2023-05-07T22:37:54.432Z,100254.69
2023-05-07T22:40:21.357Z,100252.38
2023-05-07T22:42:48.082Z,100254.56
2023-05-07T22:45:14.756Z,100251.48
2023-05-07T22:47:41.621Z,100249.73
2023-05-07T22:50:08.593Z,100249.02
2023-05-07T22:52:35.326Z,100249.40
2023-05-07T22:55:02.149Z,100247.01
2023-05-07T22:57:28.980Z,100246.09
2023-05-07T22:59:56.079Z,100245.11
2023-05-07T23:02:23.042Z,100241.30
2023-05-07T23:04:49.945Z,100242.40
2023-05-07T23:07:16.640Z,100239.81
2023-05-07T23:09:43.371Z,100241.98
2023-05-07T23:12:10.068Z,100241.80
2023-05-07T23:14:36.794Z,100238.64
2023-05-07T23:17:03.770Z,100239.54
2023-05-07T23:19:30.575Z,100238.61
2023-05-07T23:21:57.322Z,100234.56
2023-05-07T23:24:24.034Z,100236.92
2023-05-07T23:26:50.739Z,100239.09
2023-05-07T23:29:17.503Z,100236.67
2023-05-07T23:31:44.610Z,100234.80
2023-05-07T23:34:11.325Z,100234.48
2023-05-07T23:36:38.024Z,100235.60
2023-05-07T23:39:04.802Z,100236.47
2023-05-07T23:41:31.501Z,100233.90
2023-05-07T23:43:58.197Z,100235.27
2023-05-07T23:46:25.052Z,100235.90
2023-05-07T23:48:51.777Z,100241.96
2023-05-07T23:51:18.496Z,100238.92
2023-05-07T23:53:45.858Z,100242.16
2023-05-07T23:56:12.640Z,100244.25
2023-05-07T23:58:39.313Z,100240.54
